Time;durP1;ratioP1;P1;durP2;ratioP2;P2;SDS_P1;SDS_P2;PMS_P1;PMS_P2;Temp;Humidity;BMP_temperature;BMP_pressure;BME280_temperature;BME280_humidity;BME280_pressure;Samples;Min_cycle;Max_cycle;Signal;HPM_P1;HPM_P2
2023/03/31 00:00:27;;;;;;;9.10;3.25;;;;;;;3.49;56.41;101084.47;4946076;29;20158;-93
2023/03/31 00:02:57;;;;;;;7.93;3.53;;;;;;;3.42;56.80;101077.88;4946420;28;20051;-90
2023/03/31 00:05:32;;;;;;;5.65;3.33;;;;;;;3.42;56.48;101067.22;4944867;29;20043;-94
2023/03/31 00:08:00;;;;;;;6.97;3.47;;;;;;;3.33;56.50;101059.88;4953585;28;20047;-91
2023/03/31 00:10:53;;;;;;;6.85;3.13;;;;;;;3.41;56.06;101069.97;4942290;29;20062;-92
2023/03/31 00:13:20;;;;;;;4.95;2.72;;;;;;;3.27;55.93;101057.63;4953358;28;20074;-92
2023/03/31 00:15:48;;;;;;;6.45;3.20;;;;;;;3.42;55.74;101067.22;4923452;29;20047;-92
2023/03/31 00:18:18;;;;;;;6.28;3.20;;;;;;;3.17;55.96;101046.78;4940354;29;20074;-91
2023/03/31 00:20:45;;;;;;;8.10;3.35;;;;;;;3.34;54.95;101056.25;4927628;29;20090;-92
2023/03/31 00:23:13;;;;;;;6.50;3.15;;;;;;;3.33;54.72;101036.81;4924500;29;20047;-90
2023/03/31 00:25:43;;;;;;;5.78;2.90;;;;;;;3.41;54.76;101038.09;4928884;29;20436;-94
2023/03/31 00:28:09;;;;;;;6.45;3.08;;;;;;;3.26;54.84;101013.41;4924626;29;20523;-91
2023/03/31 00:30:39;;;;;;;8.05;3.55;;;;;;;3.49;54.88;101041.06;4949849;29;20571;-90
2023/03/31 00:33:04;;;;;;;6.93;2.97;;;;;;;3.42;54.60;101037.13;4929929;28;20051;-90
2023/03/31 00:35:31;;;;;;;5.03;3.00;;;;;;;3.48;54.21;101037.53;4931640;29;20066;-92
2023/03/31 00:38:01;;;;;;;5.35;2.95;;;;;;;3.38;53.40;101007.25;4941556;28;20298;-91
2023/03/31 00:40:30;;;;;;;5.82;2.90;;;;;;;3.57;53.55;101028.94;4949670;29;20031;-89
2023/03/31 00:43:02;;;;;;;8.98;3.35;;;;;;;3.43;53.33;100994.50;4917792;28;20055;-90
2023/03/31 00:45:31;;;;;;;9.38;3.63;;;;;;;3.57;53.90;101023.63;4928365;29;20547;-89
2023/03/31 00:48:09;;;;;;;8.23;3.58;;;;;;;3.44;54.12;101009.50;4919209;28;20795;-90
2023/03/31 00:50:40;;;;;;;10.15;3.97;;;;;;;3.36;53.93;100983.44;4928376;29;20070;-90
2023/03/31 00:53:21;;;;;;;9.20;3.67;;;;;;;3.41;53.67;100985.78;4928837;29;20074;-91
2023/03/31 00:55:54;;;;;;;8.38;4.28;;;;;;;3.57;53.19;101007.66;4916316;29;20051;-91
2023/03/31 00:58:26;;;;;;;7.75;3.72;;;;;;;3.51;52.32;101008.13;4927572;28;20048;-91
2023/03/31 01:00:54;;;;;;;8.77;3.80;;;;;;;3.47;53.08;100984.50;4954027;29;20051;-90
2023/03/31 01:03:21;;;;;;;6.93;3.60;;;;;;;3.54;52.98;101002.56;4935390;28;20070;-91
2023/03/31 01:06:22;;;;;;;7.22;3.28;;;;;;;3.58;52.87;100997.88;4926038;28;20036;-88
2023/03/31 01:08:55;;;;;;;6.70;3.40;;;;;;;3.55;52.67;100990.97;4954222;28;20051;-90
2023/03/31 01:11:21;;;;;;;7.05;3.30;;;;;;;3.58;52.78;100985.47;4946561;29;20111;-89
2023/03/31 01:13:51;;;;;;;8.80;3.70;;;;;;;3.42;52.41;100957.38;4926780;28;20078;-90
2023/03/31 01:16:21;;;;;;;5.90;3.17;;;;;;;3.44;52.72;100961.66;4949455;28;20047;-92
2023/03/31 01:18:51;;;;;;;7.80;3.50;;;;;;;3.61;52.67;100983.53;4963915;28;20058;-90
2023/03/31 01:21:39;;;;;;;7.90;3.22;;;;;;;3.61;52.77;100980.88;4933947;29;20122;-90
2023/03/31 01:24:38;;;;;;;6.57;2.83;;;;;;;3.59;53.02;100980.97;4959904;28;20121;-89
2023/03/31 01:27:12;;;;;;;5.95;2.80;;;;;;;3.57;53.14;100975.75;4943992;29;20134;-91
2023/03/31 01:29:50;;;;;;;10.07;3.03;;;;;;;3.53;52.93;100979.59;4943744;28;20362;-90
2023/03/31 01:32:54;;;;;;;7.25;3.35;;;;;;;3.48;53.13;100970.25;4954557;28;20039;-90
2023/03/31 01:35:35;;;;;;;7.07;3.47;;;;;;;3.30;53.36;100969.72;4965047;28;20054;-92
2023/03/31 01:38:21;;;;;;;7.38;3.15;;;;;;;3.35;53.24;100964.94;4944227;28;20078;-90
2023/03/31 01:41:04;;;;;;;7.43;3.28;;;;;;;3.39;53.15;100961.09;4962820;28;20062;-91
2023/03/31 01:43:50;;;;;;;6.13;2.92;;;;;;;3.38;53.09;100959.41;4940911;28;20118;-90
2023/03/31 01:46:31;;;;;;;8.27;3.20;;;;;;;3.32;53.16;100941.22;4946594;28;20126;-91
2023/03/31 01:49:18;;;;;;;5.07;2.85;;;;;;;3.26;53.12;100949.66;4947856;28;20141;-91
2023/03/31 01:52:02;;;;;;;6.70;3.10;;;;;;;3.30;53.50;100945.78;4939668;29;20039;-90
2023/03/31 01:54:31;;;;;;;9.13;3.28;;;;;;;3.34;53.33;100934.84;4949283;28;20376;-90
2023/03/31 01:57:05;;;;;;;6.32;2.95;;;;;;;3.45;53.46;100933.25;4955607;28;20515;-90
2023/03/31 01:59:38;;;;;;;10.88;2.80;;;;;;;3.29;53.64;100930.81;4929462;28;20150;-91
2023/03/31 02:02:18;;;;;;;5.95;2.97;;;;;;;3.31;53.92;100931.56;4954736;28;20113;-91
2023/03/31 02:05:05;;;;;;;7.60;2.70;;;;;;;3.33;53.76;100932.31;4919797;28;20081;-90
2023/03/31 02:07:38;;;;;;;6.53;2.72;;;;;;;3.29;53.46;100921.03;4951261;28;20035;-90
2023/03/31 02:10:06;;;;;;;5.75;2.80;;;;;;;3.20;53.63;100891.59;4956079;28;20045;-90
2023/03/31 02:12:32;;;;;;;5.65;2.90;;;;;;;3.30;53.46;100903.28;4944310;28;20046;-90
2023/03/31 02:14:59;;;;;;;5.03;2.67;;;;;;;3.25;53.39;100906.25;4930914;28;20054;-90
2023/03/31 02:17:32;;;;;;;5.15;2.65;;;;;;;3.17;53.56;100892.66;4931681;28;20082;-89
2023/03/31 02:20:25;;;;;;;6.05;2.90;;;;;;;3.24;53.81;100906.38;4944499;28;20134;-91
2023/03/31 02:22:55;;;;;;;6.85;3.00;;;;;;;3.07;54.07;100881.84;4960475;28;20048;-89
2023/03/31 02:25:38;;;;;;;6.03;3.00;;;;;;;3.30;53.40;100895.31;4947985;28;20042;-89
2023/03/31 02:28:13;;;;;;;7.23;3.40;;;;;;;3.29;53.45;100885.66;4961701;28;20054;-89
2023/03/31 02:30:53;;;;;;;6.75;3.30;;;;;;;3.15;54.07;100860.88;4943467;28;20048;-89
2023/03/31 02:33:19;;;;;;;10.73;3.65;;;;;;;3.09;53.95;100858.69;4921954;28;20081;-89
2023/03/31 02:35:44;;;;;;;8.30;3.90;;;;;;;3.25;53.98;100866.41;4927660;28;20153;-89
2023/03/31 02:38:11;;;;;;;6.30;3.67;;;;;;;3.21;54.60;100877.34;4942980;28;20364;-89
2023/03/31 02:40:37;;;;;;;7.32;3.97;;;;;;;3.21;54.42;100867.59;4933567;29;20047;-87
2023/03/31 02:43:05;;;;;;;7.67;3.50;;;;;;;3.15;54.15;100879.47;4963536;28;20078;-90
2023/03/31 02:45:50;;;;;;;8.57;3.67;;;;;;;2.94;54.19;100847.31;4932775;28;20381;-91
2023/03/31 02:48:29;;;;;;;8.90;3.78;;;;;;;3.19;54.68;100882.78;4950887;28;20039;-89
2023/03/31 02:51:06;;;;;;;8.73;3.58;;;;;;;3.27;54.72;100877.78;4947807;28;20043;-91
2023/03/31 02:54:05;;;;;;;6.78;3.80;;;;;;;3.27;54.74;100871.59;4955560;28;20367;-90
2023/03/31 02:56:46;;;;;;;7.75;4.05;;;;;;;3.17;54.79;100866.09;4964794;28;20654;-91
2023/03/31 02:59:24;;;;;;;11.38;3.70;;;;;;;3.15;54.46;100874.16;4940823;28;20059;-90
2023/03/31 03:02:18;;;;;;;6.32;3.63;;;;;;;3.15;54.25;100855.56;4935475;29;20047;-90
2023/03/31 03:05:07;;;;;;;6.97;3.33;;;;;;;3.11;54.08;100847.94;4941500;28;20425;-90
2023/03/31 03:07:38;;;;;;;8.65;3.90;;;;;;;3.13;54.20;100852.16;4957274;28;20372;-90
2023/03/31 03:10:13;;;;;;;10.25;3.72;;;;;;;3.15;54.26;100860.88;4938614;28;20061;-88
2023/03/31 03:13:03;;;;;;;14.95;4.45;;;;;;;3.19;54.34;100858.88;4947967;28;20427;-91
2023/03/31 03:16:17;;;;;;;7.57;3.35;;;;;;;2.98;54.70;100824.06;4961729;28;20047;-89
2023/03/31 03:18:44;;;;;;;6.50;3.47;;;;;;;3.14;54.27;100842.41;4944459;28;20046;-89
2023/03/31 03:21:09;;;;;;;;;;;;;;;3.12;53.61;100839.00;4930878;28;20130;-89
2023/03/31 03:23:37;;;;;;;9.90;4.05;;;;;;;2.95;53.99;100840.22;4948784;28;20377;-89
2023/03/31 03:26:03;;;;;;;9.93;4.53;;;;;;;2.96;54.48;100831.28;4936984;28;20046;-89
2023/03/31 03:28:31;;;;;;;13.40;5.20;;;;;;;3.00;54.52;100827.44;4937329;28;20206;-88
2023/03/31 03:31:00;;;;;;;16.23;6.65;;;;;;;2.96;54.63;100825.97;4944738;28;20134;-90
2023/03/31 03:33:27;;;;;;;20.08;8.05;;;;;;;2.93;54.62;100810.25;4955445;28;20039;-90
2023/03/31 03:35:55;;;;;;;13.52;6.28;;;;;;;2.98;54.62;100821.41;4937309;28;20476;-90
2023/03/31 03:38:21;;;;;;;13.93;6.32;;;;;;;2.96;54.60;100820.66;4948430;28;20047;-91
2023/03/31 03:40:53;;;;;;;13.20;6.13;;;;;;;2.89;54.94;100808.75;4934314;28;20506;-87
2023/03/31 03:43:18;;;;;;;16.40;5.82;;;;;;;2.94;55.01;100828.72;4940171;28;20051;-87
2023/03/31 03:45:51;;;;;;;11.98;5.72;;;;;;;2.89;55.03;100798.13;4941784;28;20106;-88
2023/03/31 03:48:25;;;;;;;18.58;5.80;;;;;;;3.13;55.06;100833.56;4947477;28;20047;-89
2023/03/31 03:50:53;;;;;;;14.40;5.60;;;;;;;3.20;54.66;100830.50;4950300;28;20043;-90
2023/03/31 03:53:19;;;;;;;10.35;5.43;;;;;;;3.11;54.94;100813.38;4940890;28;20043;-89
2023/03/31 03:55:49;;;;;;;12.23;6.20;;;;;;;3.16;54.57;100827.19;4944080;28;20075;-88
2023/03/31 03:58:26;;;;;;;12.35;6.10;;;;;;;3.12;54.00;100831.88;4945354;28;20047;-87
2023/03/31 04:00:52;;;;;;;14.50;6.55;;;;;;;3.08;54.41;100809.16;4958641;28;20232;-89
2023/03/31 04:03:20;;;;;;;18.10;6.65;;;;;;;3.16;54.83;100822.75;4940442;28;20095;-88
2023/03/31 04:05:48;;;;;;;16.33;6.50;;;;;;;3.11;55.16;100803.63;4933645;28;20035;-90
2023/03/31 04:08:16;;;;;;;22.05;6.38;;;;;;;3.31;55.04;100820.78;4912539;28;20066;-90
2023/03/31 04:10:48;;;;;;;12.45;6.13;;;;;;;3.27;54.77;100802.53;4930803;28;20039;-90
2023/03/31 04:13:19;;;;;;;16.55;6.03;;;;;;;3.19;54.78;100783.63;4920035;28;20061;-87
2023/03/31 04:15:46;;;;;;;11.68;6.00;;;;;;;3.44;54.74;100803.94;4921705;29;20031;-89
2023/03/31 04:18:24;;;;;;;17.75;6.43;;;;;;;3.43;54.60;100797.78;4922790;28;20503;-89
2023/03/31 04:21:05;;;;;;;15.63;6.00;;;;;;;3.54;54.79;100810.31;4951621;28;20049;-91
2023/03/31 04:24:00;;;;;;;18.20;7.20;;;;;;;3.54;54.99;100803.19;4959704;28;20055;-92
2023/03/31 04:26:49;;;;;;;21.87;7.00;;;;;;;3.54;54.67;100792.53;4964350;28;20079;-90
2023/03/31 04:29:15;;;;;;;13.27;6.80;;;;;;;3.76;54.05;100798.94;4945856;28;20221;-92
2023/03/31 04:31:41;;;;;;;16.67;8.18;;;;;;;3.73;54.45;100776.09;4940410;28;20042;-87
2023/03/31 04:34:13;;;;;;;23.20;7.55;;;;;;;3.86;53.75;100756.53;4946058;28;20039;-90
2023/03/31 04:36:48;;;;;;;16.30;7.43;;;;;;;4.15;53.07;100757.84;4939957;28;20079;-90
2023/03/31 04:39:25;;;;;;;17.70;7.28;;;;;;;4.19;52.59;100742.47;4947349;28;20039;-89
2023/03/31 04:41:59;;;;;;;18.67;7.53;;;;;;;4.55;52.86;100789.38;4939138;28;20105;-90
2023/03/31 04:44:31;;;;;;;23.60;8.15;;;;;;;4.56;52.36;100761.78;4939337;28;20502;-91
2023/03/31 04:46:57;;;;;;;28.23;9.50;;;;;;;4.75;52.30;100755.88;4933853;28;20109;-90
2023/03/31 04:49:25;;;;;;;27.98;9.23;;;;;;;4.97;52.03;100754.19;4934534;29;20047;-88
2023/03/31 04:51:51;;;;;;;24.10;9.50;;;;;;;5.33;51.62;100781.50;4937199;28;20050;-90
2023/03/31 04:54:16;;;;;;;21.77;10.50;;;;;;;5.54;51.40;100785.09;4947517;28;20052;-88
2023/03/31 04:56:42;;;;;;;28.17;10.80;;;;;;;5.59;50.86;100758.03;4921240;29;20100;-90
2023/03/31 04:59:08;;;;;;;31.15;11.85;;;;;;;5.91;50.75;100782.06;4956395;28;20054;-89
2023/03/31 05:01:36;;;;;;;31.98;12.32;;;;;;;6.12;50.17;100766.94;4931936;28;20043;-92
2023/03/31 05:04:28;;;;;;;31.25;13.18;;;;;;;6.46;49.40;100771.22;4952875;28;20046;-90
2023/03/31 05:07:06;;;;;;;44.78;14.10;;;;;;;6.45;49.92;100743.66;4960823;28;20567;-91
2023/03/31 05:09:47;;;;;;;46.20;14.55;;;;;;;6.69;49.65;100745.19;4958741;28;20043;-90
2023/03/31 05:12:12;;;;;;;47.60;17.25;;;;;;;6.63;50.72;100745.75;4951973;28;20054;-89
2023/03/31 05:14:38;;;;;;;43.08;16.58;;;;;;;6.79;50.60;100735.41;4964096;28;21126;-93
2023/03/31 05:17:06;;;;;;;;;;;;;;;6.93;50.98;100748.41;4960606;28;20690;-94
2023/03/31 05:19:32;;;;;;;45.22;16.95;;;;;;;6.98;51.07;100743.50;4940753;28;20021;-94
2023/03/31 05:22:13;;;;;;;55.60;19.73;;;;;;;7.10;51.32;100746.06;4923016;29;20051;-94
2023/03/31 05:24:50;;;;;;;46.97;17.42;;;;;;;7.10;51.48;100741.56;4951732;28;20069;-93
2023/03/31 05:27:20;;;;;;;41.13;17.67;;;;;;;7.18;51.46;100739.03;4909877;29;20113;-95
2023/03/31 05:29:46;;;;;;;47.38;18.45;;;;;;;7.19;51.58;100715.84;4873476;29;20140;-88
2023/03/31 05:32:23;;;;;;;50.50;19.95;;;;;;;7.17;51.39;100707.09;4888245;29;20558;-93
2023/03/31 05:34:56;;;;;;;44.20;17.88;;;;;;;7.50;51.23;100734.47;4902167;29;20081;-94
2023/03/31 05:37:39;;;;;;;56.58;20.55;;;;;;;7.41;51.14;100698.69;4900825;29;20548;-89
2023/03/31 05:40:08;;;;;;;55.97;20.83;;;;;;;7.71;51.08;100720.94;4935539;29;20039;-88
2023/03/31 05:42:50;;;;;;;55.67;21.42;;;;;;;7.54;50.69;100688.56;4920024;29;20064;-94
2023/03/31 05:45:57;;;;;;;51.95;21.25;;;;;;;8.01;50.29;100714.59;4924105;29;20044;-92
2023/03/31 05:48:53;;;;;;;56.17;20.23;;;;;;;8.13;49.76;100715.28;4935442;29;20046;-92
2023/03/31 05:51:30;;;;;;;53.78;20.63;;;;;;;8.43;49.32;100723.13;4918464;29;20040;-90
2023/03/31 05:54:24;;;;;;;50.30;19.52;;;;;;;8.46;48.37;100713.97;4921484;29;20040;-92
2023/03/31 05:56:57;;;;;;;47.83;20.15;;;;;;;8.86;48.31;100724.38;4938802;29;20052;-93
2023/03/31 05:59:26;;;;;;;58.90;21.85;;;;;;;8.96;47.84;100694.81;4915739;29;20048;-95
2023/03/31 06:01:57;;;;;;;52.60;20.58;;;;;;;9.31;46.90;100695.88;4915504;29;20069;-95
2023/03/31 06:04:27;;;;;;;46.92;22.27;;;;;;;9.61;46.40;100699.19;4921135;29;20119;-94
2023/03/31 06:07:23;;;;;;;40.75;20.95;;;;;;;9.88;45.76;100688.38;4900336;29;20059;-95
2023/03/31 06:10:19;;;;;;;55.35;21.52;;;;;;;10.19;44.90;100701.34;4925658;29;20063;-95
2023/03/31 06:13:19;;;;;;;51.03;20.13;;;;;;;10.15;44.20;100708.03;4928095;29;20099;-92
2023/03/31 06:16:01;;;;;;;52.95;21.17;;;;;;;10.16;43.93;100690.94;4930026;29;20103;-85
2023/03/31 06:18:54;;;;;;;49.63;20.02;;;;;;;10.30;43.86;100671.56;4930487;28;20031;-91
2023/03/31 06:21:30;;;;;;;51.88;21.10;;;;;;;10.50;43.21;100690.97;4933317;29;20039;-93
2023/03/31 06:24:16;;;;;;;42.78;19.55;;;;;;;10.54;42.74;100689.66;4964142;28;20062;-91
2023/03/31 06:27:12;;;;;;;41.20;17.50;;;;;;;10.59;41.59;100680.28;4931062;29;20043;-92
2023/03/31 06:30:08;;;;;;;56.28;17.40;;;;;;;10.57;41.65;100685.81;4959424;28;20123;-92
2023/03/31 06:33:13;;;;;;;;;;;;;;;10.40;41.86;100689.44;4950841;28;20035;-92
2023/03/31 06:36:00;;;;;;;38.67;14.80;;;;;;;10.27;41.90;100661.09;4961811;29;19918;-94
2023/03/31 06:38:31;;;;;;;51.47;15.98;;;;;;;10.32;41.63;100671.38;4919550;29;20040;-95
2023/03/31 06:41:38;;;;;;;39.85;15.40;;;;;;;10.55;41.43;100694.03;4898880;29;20045;-95
2023/03/31 06:44:47;;;;;;;34.17;15.23;;;;;;;10.41;41.44;100661.53;4915928;29;20048;-94
2023/03/31 06:47:29;;;;;;;38.30;16.02;;;;;;;10.47;41.39;100677.03;4925215;29;20107;-95
2023/03/31 06:50:27;;;;;;;32.75;16.33;;;;;;;10.44;41.71;100680.88;4915360;29;20056;-92
2023/03/31 06:54:00;;;;;;;57.60;20.27;;;;;;;10.16;42.36;100642.56;4916711;29;20040;-96
2023/03/31 06:57:05;;;;;;;59.53;23.92;;;;;;;10.28;42.42;100662.81;5043323;23;20042;-93
2023/03/31 07:00:09;;;;;;;51.40;24.13;;;;;;;10.49;42.55;100675.03;4908295;29;20044;-94
2023/03/31 07:02:54;;;;;;;70.43;27.67;;;;;;;10.75;42.35;100702.72;4908659;28;20051;-92
2023/03/31 07:06:17;;;;;;;80.88;28.27;;;;;;;10.69;42.35;100659.50;4984504;28;20542;-92
2023/03/31 07:09:14;;;;;;;64.78;26.05;;;;;;;10.63;42.43;100655.59;4984615;28;20094;-91
2023/03/31 07:12:21;;;;;;;69.57;24.60;;;;;;;10.72;42.86;100692.28;4966697;29;20082;-93
2023/03/31 07:15:02;;;;;;;59.30;19.98;;;;;;;10.21;43.46;100687.75;4951243;28;20051;-92
2023/03/31 07:17:33;;;;;;;42.55;16.05;;;;;;;9.96;43.26;100659.88;4955414;28;20122;-92
2023/03/31 07:20:34;;;;;;;42.33;14.98;;;;;;;10.17;42.95;100678.34;4962064;28;20617;-94
2023/03/31 07:24:06;;;;;;;28.88;14.07;;;;;;;10.22;42.84;100652.66;4973196;28;20090;-91
2023/03/31 07:29:20;;;;;;;28.77;11.50;;;;;;;10.05;42.24;100659.78;4963389;28;20051;-86
2023/03/31 07:31:46;;;;;;;24.52;10.45;;;;;;;9.95;42.19;100640.25;4938301;29;20116;-88
2023/03/31 07:34:16;;;;;;;26.92;11.35;;;;;;;10.00;42.46;100669.31;4930188;29;20042;-93
2023/03/31 07:36:56;;;;;;;32.47;13.23;;;;;;;9.77;42.74;100634.91;4978893;23;20091;-92
2023/03/31 07:43:14;;;;;;;41.33;16.27;;;;;;;10.18;43.52;100678.16;4945249;29;20126;-94
2023/03/31 07:45:46;;;;;;;45.28;19.02;;;;;;;10.16;43.91;100661.38;4939736;29;20054;-92
2023/03/31 07:48:15;;;;;;;59.00;21.98;;;;;;;10.07;44.21;100647.03;4929300;29;20173;-92
2023/03/31 07:50:44;;;;;;;45.08;20.88;;;;;;;10.35;44.29;100679.16;4924133;29;20107;-91
2023/03/31 07:53:13;;;;;;;39.05;16.92;;;;;;;10.20;43.71;100643.91;4913129;29;20042;-91
2023/03/31 07:59:04;;;;;;;27.80;13.30;;;;;;;10.38;42.86;100645.75;4945584;29;20084;-92
2023/03/31 08:01:44;;;;;;;31.50;10.75;;;;;;;10.52;41.11;100658.56;4922150;29;20130;-91
2023/03/31 08:04:12;;;;;;;22.73;10.23;;;;;;;10.27;41.28;100647.66;4922256;29;20039;-90
2023/03/31 08:06:38;;;;;;;21.30;9.95;;;;;;;10.17;42.05;100657.66;4909122;29;20468;-91
2023/03/31 08:09:06;;;;;;;25.77;11.05;;;;;;;10.01;42.63;100647.66;4890323;29;20046;-90
2023/03/31 08:11:32;;;;;;;26.83;11.63;;;;;;;10.18;42.40;100626.28;4905705;29;20197;-90
2023/03/31 08:17:20;;;;;;;19.15;9.52;;;;;;;10.04;43.37;100670.66;4939686;29;20555;-91
2023/03/31 08:22:53;;;;;;;21.85;10.65;;;;;;;9.98;46.62;100649.84;4942827;29;19918;-90
2023/03/31 08:25:30;;;;;;;22.85;11.15;;;;;;;9.63;46.97;100656.94;4922091;29;20122;-92
2023/03/31 08:28:18;;;;;;;22.05;11.90;;;;;;;9.76;48.31;100664.59;4939832;29;20043;-89
2023/03/31 08:30:45;;;;;;;20.98;11.68;;;;;;;9.66;48.06;100645.88;4907126;29;20126;-91
2023/03/31 08:33:16;;;;;;;22.10;11.18;;;;;;;9.40;48.70;100638.63;4944899;29;20044;-89
2023/03/31 08:35:48;;;;;;;21.42;11.40;;;;;;;9.07;50.44;100638.31;4926260;29;20031;-90
2023/03/31 08:38:14;;;;;;;26.17;12.20;;;;;;;8.92;51.98;100649.69;4930313;29;20051;-91
2023/03/31 08:44:07;;;;;;;22.55;13.35;;;;;;;8.80;55.73;100646.38;4962303;29;20066;-90
2023/03/31 08:46:34;;;;;;;25.55;14.32;;;;;;;8.86;56.28;100654.66;4926588;29;20035;-92
2023/03/31 08:49:03;;;;;;;26.15;14.88;;;;;;;8.79;58.35;100647.38;4957001;29;20066;-90
2023/03/31 08:54:59;;;;;;;29.33;13.82;;;;;;;8.46;59.02;100617.50;4958571;29;20429;-90
2023/03/31 08:57:32;;;;;;;26.75;14.02;;;;;;;8.66;60.11;100643.22;4925181;29;20348;-92
2023/03/31 09:00:05;;;;;;;22.70;12.85;;;;;;;8.63;59.99;100638.13;4911497;29;20134;-91
2023/03/31 09:02:51;;;;;;;21.45;13.18;;;;;;;8.33;62.42;100630.34;4942298;29;20035;-89
2023/03/31 09:08:43;;;;;;;23.67;13.90;;;;;;;8.14;64.76;100616.03;4956830;29;20050;-90
2023/03/31 09:11:27;;;;;;;23.88;14.70;;;;;;;8.25;65.25;100621.22;4938137;29;20039;-89
2023/03/31 09:13:56;;;;;;;27.63;14.90;;;;;;;8.16;65.77;100608.69;4909484;29;20035;-89
2023/03/31 09:17:11;;;;;;;26.30;15.98;;;;;;;8.24;68.68;100624.03;4938436;29;20403;-89
2023/03/31 09:19:44;;;;;;;22.42;14.50;;;;;;;8.42;68.15;100616.09;4914088;29;20039;-88
2023/03/31 09:22:18;;;;;;;25.40;15.00;;;;;;;8.66;69.22;100626.28;4944012;29;20169;-92
2023/03/31 09:24:57;;;;;;;30.08;16.90;;;;;;;8.94;68.69;100611.00;4956599;29;20114;-92
2023/03/31 09:27:26;;;;;;;29.92;16.35;;;;;;;9.14;70.04;100625.13;4956148;28;20144;-91
2023/03/31 09:30:00;;;;;;;25.02;16.73;;;;;;;9.07;70.21;100616.84;4923759;29;20086;-91
2023/03/31 09:32:30;;;;;;;29.55;16.58;;;;;;;9.17;70.47;100613.25;4924303;29;20046;-91
2023/03/31 09:35:01;;;;;;;30.13;16.17;;;;;;;9.16;69.65;100611.59;4922829;29;20122;-89
2023/03/31 09:37:32;;;;;;;28.92;15.30;;;;;;;9.01;70.46;100603.19;4926372;29;20039;-89
2023/03/31 09:40:00;;;;;;;22.15;13.50;;;;;;;9.09;69.94;100601.44;4907119;29;20063;-90
2023/03/31 09:42:26;;;;;;;22.00;13.45;;;;;;;8.91;71.30;100589.88;4936856;29;20089;-89
2023/03/31 09:44:52;;;;;;;20.38;12.70;;;;;;;8.91;70.80;100594.38;4922492;29;20031;-89
2023/03/31 09:47:42;;;;;;;20.02;12.18;;;;;;;8.80;71.08;100582.03;4925859;29;20046;-86
2023/03/31 09:50:08;;;;;;;18.90;11.30;;;;;;;8.77;70.52;100593.06;4922402;29;20070;-86
2023/03/31 09:52:55;;;;;;;20.63;10.77;;;;;;;8.56;69.32;100578.09;4921332;29;20039;-86
2023/03/31 09:55:26;;;;;;;19.23;10.38;;;;;;;8.35;71.85;100572.13;4941414;29;20122;-85
2023/03/31 10:01:17;;;;;;;20.90;10.43;;;;;;;8.69;70.95;100590.31;4963522;29;20105;-87
2023/03/31 10:03:53;;;;;;;18.60;10.40;;;;;;;8.53;71.82;100591.78;4939773;29;20031;-83
2023/03/31 10:06:20;;;;;;;;;;;;;;;8.37;72.40;100588.88;4954246;29;20050;-84
2023/03/31 10:12:15;;;;;;;15.27;9.73;;;;;;;8.38;72.87;100579.84;4955987;29;20034;-88
2023/03/31 10:18:04;;;;;;;17.88;10.45;;;;;;;8.24;73.31;100560.63;4954831;29;20034;-86
2023/03/31 10:20:36;;;;;;;18.10;11.10;;;;;;;8.16;74.53;100560.50;4955504;29;20057;-86
2023/03/31 10:23:06;;;;;;;17.75;10.23;;;;;;;7.91;74.90;100561.16;4938418;29;20035;-87
2023/03/31 10:28:54;;;;;;;21.85;12.10;;;;;;;8.03;75.95;100549.28;4963638;29;20049;-86
2023/03/31 10:31:23;;;;;;;22.50;13.65;;;;;;;8.23;77.07;100548.19;4937010;29;20027;-86
2023/03/31 10:33:50;;;;;;;31.92;19.10;;;;;;;8.31;77.58;100538.56;4921792;29;20042;-84
2023/03/31 10:36:28;;;;;;;30.85;18.10;;;;;;;8.33;77.40;100533.91;4953567;29;20039;-83
2023/03/31 10:42:20;;;;;;;27.15;15.15;;;;;;;8.64;75.86;100505.84;4956811;29;20078;-85
2023/03/31 10:44:46;;;;;;;22.15;14.48;;;;;;;9.04;76.81;100522.47;4951777;29;20043;-84
2023/03/31 10:47:11;;;;;;;27.67;15.13;;;;;;;9.09;76.91;100522.84;4935693;29;20050;-85
2023/03/31 10:49:40;;;;;;;23.60;13.83;;;;;;;9.48;75.67;100498.28;4953893;29;20046;-85
2023/03/31 10:52:23;;;;;;;25.42;14.07;;;;;;;9.94;74.54;100515.84;4936963;29;20504;-86
2023/03/31 10:55:00;;;;;;;18.42;12.90;;;;;;;10.31;73.20;100501.25;4935757;29;20108;-84
2023/03/31 10:57:40;;;;;;;33.05;13.23;;;;;;;10.58;72.51;100504.69;4934632;29;20122;-83
2023/03/31 11:00:13;;;;;;;21.92;13.05;;;;;;;10.97;71.28;100501.38;4935919;29;20038;-86
2023/03/31 11:02:57;;;;;;;19.45;11.05;;;;;;;11.41;67.02;100492.97;4936190;29;20048;-86
2023/03/31 11:05:51;;;;;;;15.88;10.88;;;;;;;11.43;66.89;100480.16;4953685;29;20082;-86
2023/03/31 11:08:17;;;;;;;22.17;11.32;;;;;;;11.54;67.06;100479.81;4920002;29;20440;-84
2023/03/31 11:14:20;;;;;;;19.92;10.45;;;;;;;11.65;66.06;100467.00;4952556;29;20042;-85
2023/03/31 11:16:58;;;;;;;15.98;10.05;;;;;;;11.80;64.80;100459.88;4951810;29;20040;-85
2023/03/31 11:22:54;;;;;;;15.68;9.88;;;;;;;12.16;63.56;100454.88;4952742;29;20166;-85
2023/03/31 11:29:23;;;;;;;14.90;9.88;;;;;;;13.19;61.95;100445.53;4953251;29;20110;-84
2023/03/31 11:31:58;;;;;;;15.48;10.77;;;;;;;13.22;62.49;100445.16;4892802;29;20066;-85
2023/03/31 11:34:43;;;;;;;16.08;10.43;;;;;;;13.30;60.83;100447.81;4846998;29;20087;-84
2023/03/31 11:37:46;;;;;;;12.98;9.32;;;;;;;12.96;59.94;100444.72;4932660;29;20126;-86
2023/03/31 11:40:33;;;;;;;14.45;9.05;;;;;;;13.06;58.84;100445.31;4934901;29;20043;-85
2023/03/31 11:43:02;;;;;;;19.40;10.57;;;;;;;12.93;59.41;100442.41;4952270;29;20046;-84
2023/03/31 11:45:37;;;;;;;14.13;9.68;;;;;;;12.62;60.34;100427.97;4937372;29;20130;-85
2023/03/31 11:48:07;;;;;;;14.68;10.60;;;;;;;12.60;60.99;100434.56;4952258;29;20041;-84
2023/03/31 11:50:37;;;;;;;16.00;10.18;;;;;;;12.40;61.37;100435.00;4937024;28;20468;-83
2023/03/31 11:53:13;;;;;;;17.17;10.75;;;;;;;12.39;61.63;100436.03;4938833;29;20194;-83
2023/03/31 11:55:40;;;;;;;18.77;12.02;;;;;;;12.56;61.63;100422.44;4924841;29;20039;-84
2023/03/31 11:58:11;;;;;;;19.70;12.43;;;;;;;12.45;61.89;100419.16;4954743;29;20057;-84
2023/03/31 12:00:59;;;;;;;19.10;11.38;;;;;;;12.82;60.71;100414.81;4934005;29;20059;-87
2023/03/31 12:06:48;;;;;;;17.95;10.63;;;;;;;13.60;59.04;100395.66;4960295;29;20038;-87
2023/03/31 12:09:50;;;;;;;14.68;9.65;;;;;;;13.98;57.16;100398.22;4925542;29;20117;-89
2023/03/31 12:12:30;;;;;;;15.35;8.57;;;;;;;13.68;56.12;100401.81;4938252;29;20043;-88
2023/03/31 12:15:23;;;;;;;13.82;8.75;;;;;;;13.68;55.50;100376.69;4939570;29;20031;-86
2023/03/31 12:21:10;;;;;;;14.55;8.55;;;;;;;14.52;54.21;100382.41;4961347;29;20147;-87
2023/03/31 12:24:05;;;;;;;14.43;8.75;;;;;;;14.99;53.59;100364.72;4923087;29;20051;-88
2023/03/31 12:30:14;;;;;;;13.70;9.20;;;;;;;15.30;53.75;100373.47;4956781;29;20046;-86
2023/03/31 12:32:44;;;;;;;13.20;8.98;;;;;;;15.03;53.85;100358.91;4939378;29;20106;-88
2023/03/31 12:35:09;;;;;;;16.08;9.60;;;;;;;14.86;54.18;100371.91;4938725;29;20411;-87
2023/03/31 12:37:57;;;;;;;14.98;9.75;;;;;;;14.70;55.10;100351.34;4955474;28;20135;-89
2023/03/31 12:40:42;;;;;;;13.93;8.60;;;;;;;14.63;55.63;100366.69;4925238;29;20110;-85
2023/03/31 12:43:29;;;;;;;15.52;9.43;;;;;;;14.54;56.32;100361.44;4923620;29;20105;-90
2023/03/31 12:46:03;;;;;;;16.88;9.63;;;;;;;14.41;56.44;100347.75;4958269;29;20043;-88
2023/03/31 12:48:35;;;;;;;13.98;9.07;;;;;;;14.32;56.99;100346.19;4955263;29;20045;-89
2023/03/31 12:55:14;;;;;;;17.08;8.88;;;;;;;14.44;56.66;100352.75;4957772;29;20030;-88
2023/03/31 13:01:05;;;;;;;16.67;10.48;;;;;;;14.45;56.70;100334.69;4896911;29;20042;-89
2023/03/31 13:03:33;;;;;;;18.92;10.55;;;;;;;14.48;58.07;100337.00;4880482;29;20052;-89
2023/03/31 13:06:02;;;;;;;20.35;9.20;;;;;;;14.69;57.47;100330.75;4896650;29;20043;-89
2023/03/31 13:09:04;;;;;;;19.88;9.07;;;;;;;14.75;56.39;100324.56;4937283;29;20428;-89
2023/03/31 13:11:39;;;;;;;15.77;7.97;;;;;;;14.83;55.91;100329.81;4908212;29;20079;-88
2023/03/31 13:14:25;;;;;;;14.82;8.25;;;;;;;14.92;55.90;100328.66;4941386;29;20038;-89
2023/03/31 13:20:41;;;;;;;14.52;8.75;;;;;;;15.05;55.95;100317.06;4957097;29;20041;-88